sensor_id;sensor_type;location;lat;lon;timestamp;temperature;humidity
55721;DHT22;41626;53.098;6.168;2023-05-20T00:00:49;10.30;99.90
55721;DHT22;41626;53.098;6.168;2023-05-20T00:03:16;10.20;99.90
55721;DHT22;41626;53.098;6.168;2023-05-20T00:05:42;10.30;99.90
55721;DHT22;41626;53.098;6.168;2023-05-20T00:08:08;10.20;99.90
55721;DHT22;41626;53.098;6.168;2023-05-20T00:10:34;10.10;99.90
55721;DHT22;41626;53.098;6.168;2023-05-20T00:13:01;10.10;99.90
55721;DHT22;41626;53.098;6.168;2023-05-20T00:15:27;10.10;99.90
55721;DHT22;41626;53.098;6.168;2023-05-20T00:17:53;10.20;99.90
55721;DHT22;41626;53.098;6.168;2023-05-20T00:20:19;10.40;99.90
55721;DHT22;41626;53.098;6.168;2023-05-20T00:22:44;10.10;99.90
55721;DHT22;41626;53.098;6.168;2023-05-20T00:25:10;10.10;99.90
55721;DHT22;41626;53.098;6.168;2023-05-20T00:27:35;10.10;99.90
55721;DHT22;41626;53.098;6.168;2023-05-20T00:30:01;10.10;99.90
55721;DHT22;41626;53.098;6.168;2023-05-20T00:32:27;10.10;99.90
55721;DHT22;41626;53.098;6.168;2023-05-20T00:34:57;10.00;99.90
55721;DHT22;41626;53.098;6.168;2023-05-20T00:37:23;10.10;99.90
55721;DHT22;41626;53.098;6.168;2023-05-20T00:39:48;10.00;99.90
55721;DHT22;41626;53.098;6.168;2023-05-20T00:42:21;10.00;99.90
55721;DHT22;41626;53.098;6.168;2023-05-20T00:44:46;10.00;99.90
55721;DHT22;41626;53.098;6.168;2023-05-20T00:47:14;10.00;99.90
55721;DHT22;41626;53.098;6.168;2023-05-20T00:49:40;10.00;99.90
55721;DHT22;41626;53.098;6.168;2023-05-20T00:52:07;10.10;99.90
55721;DHT22;41626;53.098;6.168;2023-05-20T00:54:33;10.00;99.90
55721;DHT22;41626;53.098;6.168;2023-05-20T00:56:58;10.00;99.90
55721;DHT22;41626;53.098;6.168;2023-05-20T00:59:25;9.90;99.90
55721;DHT22;41626;53.098;6.168;2023-05-20T01:01:51;10.00;99.90
55721;DHT22;41626;53.098;6.168;2023-05-20T01:04:17;9.90;99.90
55721;DHT22;41626;53.098;6.168;2023-05-20T01:06:44;9.90;99.90
55721;DHT22;41626;53.098;6.168;2023-05-20T01:09:11;9.90;99.90
55721;DHT22;41626;53.098;6.168;2023-05-20T01:11:43;9.90;99.90
55721;DHT22;41626;53.098;6.168;2023-05-20T01:14:11;10.00;99.90
55721;DHT22;41626;53.098;6.168;2023-05-20T01:16:38;10.00;99.90
55721;DHT22;41626;53.098;6.168;2023-05-20T01:19:07;9.90;99.90
55721;DHT22;41626;53.098;6.168;2023-05-20T01:21:34;10.00;99.90
55721;DHT22;41626;53.098;6.168;2023-05-20T01:24:00;9.80;99.90
55721;DHT22;41626;53.098;6.168;2023-05-20T01:26:28;9.90;99.90
55721;DHT22;41626;53.098;6.168;2023-05-20T01:28:54;9.80;99.90
55721;DHT22;41626;53.098;6.168;2023-05-20T01:31:27;9.90;99.90
55721;DHT22;41626;53.098;6.168;2023-05-20T01:33:56;9.70;99.90
55721;DHT22;41626;53.098;6.168;2023-05-20T01:36:22;9.80;99.90
55721;DHT22;41626;53.098;6.168;2023-05-20T01:38:50;9.80;99.90
55721;DHT22;41626;53.098;6.168;2023-05-20T01:41:17;9.80;99.90
55721;DHT22;41626;53.098;6.168;2023-05-20T01:43:43;9.80;99.90
55721;DHT22;41626;53.098;6.168;2023-05-20T01:46:09;9.70;99.90
55721;DHT22;41626;53.098;6.168;2023-05-20T01:48:35;9.70;99.90
55721;DHT22;41626;53.098;6.168;2023-05-20T01:51:00;9.70;99.90
55721;DHT22;41626;53.098;6.168;2023-05-20T01:53:26;9.70;99.90
55721;DHT22;41626;53.098;6.168;2023-05-20T01:55:52;9.70;99.90
55721;DHT22;41626;53.098;6.168;2023-05-20T01:58:17;9.80;99.90
55721;DHT22;41626;53.098;6.168;2023-05-20T02:00:43;9.70;99.90
55721;DHT22;41626;53.098;6.168;2023-05-20T02:03:09;9.70;99.90
55721;DHT22;41626;53.098;6.168;2023-05-20T02:05:35;9.70;99.90
55721;DHT22;41626;53.098;6.168;2023-05-20T02:08:01;9.60;99.90
55721;DHT22;41626;53.098;6.168;2023-05-20T02:10:26;10.00;99.90
55721;DHT22;41626;53.098;6.168;2023-05-20T02:12:52;9.60;99.90
55721;DHT22;41626;53.098;6.168;2023-05-20T02:15:18;9.60;99.90
55721;DHT22;41626;53.098;6.168;2023-05-20T02:17:43;9.60;99.90
55721;DHT22;41626;53.098;6.168;2023-05-20T02:20:09;9.60;99.90
55721;DHT22;41626;53.098;6.168;2023-05-20T02:22:36;9.60;99.90
55721;DHT22;41626;53.098;6.168;2023-05-20T02:25:01;9.60;99.90
55721;DHT22;41626;53.098;6.168;2023-05-20T02:27:27;9.60;99.90
55721;DHT22;41626;53.098;6.168;2023-05-20T02:29:53;9.60;99.90
55721;DHT22;41626;53.098;6.168;2023-05-20T02:32:19;9.60;99.90
55721;DHT22;41626;53.098;6.168;2023-05-20T02:34:45;9.50;99.90
55721;DHT22;41626;53.098;6.168;2023-05-20T02:37:11;9.50;99.90
55721;DHT22;41626;53.098;6.168;2023-05-20T02:39:37;9.40;99.90
55721;DHT22;41626;53.098;6.168;2023-05-20T02:42:02;9.50;99.90
55721;DHT22;41626;53.098;6.168;2023-05-20T02:44:29;9.40;99.90
55721;DHT22;41626;53.098;6.168;2023-05-20T02:46:54;9.40;99.90
55721;DHT22;41626;53.098;6.168;2023-05-20T02:49:20;9.40;99.90
55721;DHT22;41626;53.098;6.168;2023-05-20T02:51:46;9.50;99.90
55721;DHT22;41626;53.098;6.168;2023-05-20T02:54:11;9.40;99.90
55721;DHT22;41626;53.098;6.168;2023-05-20T02:56:37;9.30;99.90
55721;DHT22;41626;53.098;6.168;2023-05-20T02:59:03;9.40;99.90
55721;DHT22;41626;53.098;6.168;2023-05-20T03:01:29;9.50;99.90
55721;DHT22;41626;53.098;6.168;2023-05-20T03:03:55;9.40;99.90
55721;DHT22;41626;53.098;6.168;2023-05-20T03:06:20;9.50;99.90
55721;DHT22;41626;53.098;6.168;2023-05-20T03:08:46;9.40;99.90
55721;DHT22;41626;53.098;6.168;2023-05-20T03:11:12;9.40;99.90
55721;DHT22;41626;53.098;6.168;2023-05-20T03:13:37;9.40;99.90
55721;DHT22;41626;53.098;6.168;2023-05-20T03:16:03;9.30;99.90
55721;DHT22;41626;53.098;6.168;2023-05-20T03:18:29;9.30;99.90
55721;DHT22;41626;53.098;6.168;2023-05-20T03:20:55;9.40;99.90
55721;DHT22;41626;53.098;6.168;2023-05-20T03:23:20;9.30;99.90
55721;DHT22;41626;53.098;6.168;2023-05-20T03:25:47;9.70;99.90
55721;DHT22;41626;53.098;6.168;2023-05-20T03:28:12;9.30;99.90
55721;DHT22;41626;53.098;6.168;2023-05-20T03:30:38;9.30;99.90
55721;DHT22;41626;53.098;6.168;2023-05-20T03:33:04;9.30;99.90
55721;DHT22;41626;53.098;6.168;2023-05-20T03:35:30;9.30;99.90
55721;DHT22;41626;53.098;6.168;2023-05-20T03:37:56;9.30;99.90
55721;DHT22;41626;53.098;6.168;2023-05-20T03:40:23;9.30;99.90
55721;DHT22;41626;53.098;6.168;2023-05-20T03:42:48;9.30;99.90
55721;DHT22;41626;53.098;6.168;2023-05-20T03:45:16;9.30;99.90
55721;DHT22;41626;53.098;6.168;2023-05-20T03:47:41;9.30;99.90
55721;DHT22;41626;53.098;6.168;2023-05-20T03:50:07;9.30;99.90
55721;DHT22;41626;53.098;6.168;2023-05-20T03:52:33;9.20;99.90
55721;DHT22;41626;53.098;6.168;2023-05-20T03:54:59;9.30;99.90
55721;DHT22;41626;53.098;6.168;2023-05-20T03:57:25;9.30;99.90
55721;DHT22;41626;53.098;6.168;2023-05-20T03:59:50;9.40;99.90
55721;DHT22;41626;53.098;6.168;2023-05-20T04:02:16;9.30;99.90
55721;DHT22;41626;53.098;6.168;2023-05-20T04:04:42;9.30;99.90
55721;DHT22;41626;53.098;6.168;2023-05-20T04:07:10;9.40;99.90
55721;DHT22;41626;53.098;6.168;2023-05-20T04:09:37;9.40;99.90
55721;DHT22;41626;53.098;6.168;2023-05-20T04:12:06;9.30;99.90
55721;DHT22;41626;53.098;6.168;2023-05-20T04:14:32;9.40;99.90
55721;DHT22;41626;53.098;6.168;2023-05-20T04:17:03;9.40;99.90
55721;DHT22;41626;53.098;6.168;2023-05-20T04:19:30;9.30;99.90
55721;DHT22;41626;53.098;6.168;2023-05-20T04:21:56;9.30;99.90
55721;DHT22;41626;53.098;6.168;2023-05-20T04:24:21;9.30;99.90
55721;DHT22;41626;53.098;6.168;2023-05-20T04:26:50;9.30;99.90
55721;DHT22;41626;53.098;6.168;2023-05-20T04:29:17;9.40;99.90
55721;DHT22;41626;53.098;6.168;2023-05-20T04:31:45;9.30;99.90
55721;DHT22;41626;53.098;6.168;2023-05-20T04:34:10;9.40;99.90
55721;DHT22;41626;53.098;6.168;2023-05-20T04:36:36;9.40;99.90
55721;DHT22;41626;53.098;6.168;2023-05-20T04:39:03;9.40;99.90
55721;DHT22;41626;53.098;6.168;2023-05-20T04:41:29;9.50;99.90
55721;DHT22;41626;53.098;6.168;2023-05-20T04:43:56;9.50;99.90
55721;DHT22;41626;53.098;6.168;2023-05-20T04:46:26;9.60;99.90
55721;DHT22;41626;53.098;6.168;2023-05-20T04:48:52;9.70;99.90
55721;DHT22;41626;53.098;6.168;2023-05-20T04:51:18;9.60;99.90
55721;DHT22;41626;53.098;6.168;2023-05-20T04:53:44;9.60;99.90
55721;DHT22;41626;53.098;6.168;2023-05-20T04:56:10;9.60;99.90
55721;DHT22;41626;53.098;6.168;2023-05-20T04:58:36;9.70;99.90
55721;DHT22;41626;53.098;6.168;2023-05-20T05:01:02;9.70;99.90
55721;DHT22;41626;53.098;6.168;2023-05-20T05:03:28;9.80;99.90
55721;DHT22;41626;53.098;6.168;2023-05-20T05:05:57;9.80;99.90
55721;DHT22;41626;53.098;6.168;2023-05-20T05:08:23;9.90;99.90
55721;DHT22;41626;53.098;6.168;2023-05-20T05:10:50;10.10;99.90
55721;DHT22;41626;53.098;6.168;2023-05-20T05:13:15;10.00;99.90
55721;DHT22;41626;53.098;6.168;2023-05-20T05:15:41;10.10;99.90
55721;DHT22;41626;53.098;6.168;2023-05-20T05:18:07;10.10;99.90
55721;DHT22;41626;53.098;6.168;2023-05-20T05:20:32;10.30;99.90
55721;DHT22;41626;53.098;6.168;2023-05-20T05:22:58;10.40;99.90
55721;DHT22;41626;53.098;6.168;2023-05-20T05:25:23;10.40;99.90
55721;DHT22;41626;53.098;6.168;2023-05-20T05:27:49;10.50;99.90
55721;DHT22;41626;53.098;6.168;2023-05-20T05:30:15;10.60;99.90
55721;DHT22;41626;53.098;6.168;2023-05-20T05:32:41;10.70;99.90
55721;DHT22;41626;53.098;6.168;2023-05-20T05:35:07;10.70;99.90
55721;DHT22;41626;53.098;6.168;2023-05-20T05:37:33;10.80;99.90
55721;DHT22;41626;53.098;6.168;2023-05-20T05:39:59;10.90;99.90
55721;DHT22;41626;53.098;6.168;2023-05-20T05:42:24;11.00;99.90
55721;DHT22;41626;53.098;6.168;2023-05-20T05:44:50;11.10;99.90
55721;DHT22;41626;53.098;6.168;2023-05-20T05:47:16;11.20;99.90
55721;DHT22;41626;53.098;6.168;2023-05-20T05:49:42;11.30;99.90
55721;DHT22;41626;53.098;6.168;2023-05-20T05:52:07;11.30;99.90
55721;DHT22;41626;53.098;6.168;2023-05-20T05:54:33;11.30;99.90
55721;DHT22;41626;53.098;6.168;2023-05-20T05:56:59;11.30;99.90
55721;DHT22;41626;53.098;6.168;2023-05-20T05:59:24;11.30;99.90
55721;DHT22;41626;53.098;6.168;2023-05-20T06:01:50;11.30;99.90
55721;DHT22;41626;53.098;6.168;2023-05-20T06:04:16;11.40;99.90
55721;DHT22;41626;53.098;6.168;2023-05-20T06:06:41;11.40;99.90
55721;DHT22;41626;53.098;6.168;2023-05-20T06:09:07;11.50;99.90
55721;DHT22;41626;53.098;6.168;2023-05-20T06:11:33;11.70;99.90
55721;DHT22;41626;53.098;6.168;2023-05-20T06:13:59;11.80;99.90
55721;DHT22;41626;53.098;6.168;2023-05-20T06:16:25;11.90;99.90
55721;DHT22;41626;53.098;6.168;2023-05-20T06:18:51;12.10;99.90
55721;DHT22;41626;53.098;6.168;2023-05-20T06:21:20;12.20;99.90
55721;DHT22;41626;53.098;6.168;2023-05-20T06:23:45;12.30;99.90
55721;DHT22;41626;53.098;6.168;2023-05-20T06:26:11;12.40;99.90
55721;DHT22;41626;53.098;6.168;2023-05-20T06:28:38;12.70;99.90
55721;DHT22;41626;53.098;6.168;2023-05-20T06:31:03;12.70;99.90
55721;DHT22;41626;53.098;6.168;2023-05-20T06:33:30;12.70;99.90
55721;DHT22;41626;53.098;6.168;2023-05-20T06:35:57;12.70;99.90
55721;DHT22;41626;53.098;6.168;2023-05-20T06:38:23;12.80;99.90
55721;DHT22;41626;53.098;6.168;2023-05-20T06:40:50;12.90;99.90
55721;DHT22;41626;53.098;6.168;2023-05-20T06:43:16;12.90;99.90
55721;DHT22;41626;53.098;6.168;2023-05-20T06:45:42;13.00;99.90
55721;DHT22;41626;53.098;6.168;2023-05-20T06:48:08;13.10;99.90
55721;DHT22;41626;53.098;6.168;2023-05-20T06:50:34;13.10;99.90
55721;DHT22;41626;53.098;6.168;2023-05-20T06:53:00;13.30;99.90
55721;DHT22;41626;53.098;6.168;2023-05-20T06:55:26;13.30;99.90
55721;DHT22;41626;53.098;6.168;2023-05-20T06:57:51;13.90;99.90
55721;DHT22;41626;53.098;6.168;2023-05-20T07:00:17;13.80;99.90
55721;DHT22;41626;53.098;6.168;2023-05-20T07:02:43;13.90;99.90
55721;DHT22;41626;53.098;6.168;2023-05-20T07:05:09;13.90;99.90
55721;DHT22;41626;53.098;6.168;2023-05-20T07:07:35;15.30;99.90
55721;DHT22;41626;53.098;6.168;2023-05-20T07:10:01;16.00;99.90
55721;DHT22;41626;53.098;6.168;2023-05-20T07:12:30;16.70;99.90
55721;DHT22;41626;53.098;6.168;2023-05-20T07:14:56;16.50;99.90
55721;DHT22;41626;53.098;6.168;2023-05-20T07:17:22;16.50;99.90
55721;DHT22;41626;53.098;6.168;2023-05-20T07:19:48;16.70;99.90
55721;DHT22;41626;53.098;6.168;2023-05-20T07:22:14;17.10;99.90
55721;DHT22;41626;53.098;6.168;2023-05-20T07:24:40;17.10;99.90
55721;DHT22;41626;53.098;6.168;2023-05-20T07:27:06;17.60;99.90
55721;DHT22;41626;53.098;6.168;2023-05-20T07:29:32;17.20;99.90
55721;DHT22;41626;53.098;6.168;2023-05-20T07:31:58;17.40;99.90
55721;DHT22;41626;53.098;6.168;2023-05-20T07:34:23;17.90;99.90
55721;DHT22;41626;53.098;6.168;2023-05-20T07:36:49;16.20;99.90
55721;DHT22;41626;53.098;6.168;2023-05-20T07:39:15;16.40;99.90
55721;DHT22;41626;53.098;6.168;2023-05-20T07:41:41;15.70;99.90
55721;DHT22;41626;53.098;6.168;2023-05-20T07:44:07;15.30;99.90
55721;DHT22;41626;53.098;6.168;2023-05-20T07:46:34;15.40;99.90
55721;DHT22;41626;53.098;6.168;2023-05-20T07:48:59;15.40;99.90
55721;DHT22;41626;53.098;6.168;2023-05-20T07:51:25;15.40;99.90
55721;DHT22;41626;53.098;6.168;2023-05-20T07:53:51;15.50;99.90
55721;DHT22;41626;53.098;6.168;2023-05-20T07:56:17;15.60;99.90
55721;DHT22;41626;53.098;6.168;2023-05-20T07:58:50;15.50;99.90
55721;DHT22;41626;53.098;6.168;2023-05-20T08:01:16;15.40;99.90
55721;DHT22;41626;53.098;6.168;2023-05-20T08:03:41;15.80;99.90
55721;DHT22;41626;53.098;6.168;2023-05-20T08:06:07;15.80;99.90
55721;DHT22;41626;53.098;6.168;2023-05-20T08:08:33;16.00;99.90
55721;DHT22;41626;53.098;6.168;2023-05-20T08:10:59;16.10;99.90
55721;DHT22;41626;53.098;6.168;2023-05-20T08:13:26;15.80;99.90
55721;DHT22;41626;53.098;6.168;2023-05-20T08:15:52;15.80;99.90
55721;DHT22;41626;53.098;6.168;2023-05-20T08:18:19;15.60;99.90
55721;DHT22;41626;53.098;6.168;2023-05-20T08:20:44;15.70;99.90
55721;DHT22;41626;53.098;6.168;2023-05-20T08:23:10;16.00;99.90
55721;DHT22;41626;53.098;6.168;2023-05-20T08:25:36;16.20;99.90
55721;DHT22;41626;53.098;6.168;2023-05-20T08:28:03;16.30;99.90
55721;DHT22;41626;53.098;6.168;2023-05-20T08:30:30;16.10;99.90
55721;DHT22;41626;53.098;6.168;2023-05-20T08:32:56;16.10;99.90
55721;DHT22;41626;53.098;6.168;2023-05-20T08:35:22;16.30;99.90
55721;DHT22;41626;53.098;6.168;2023-05-20T08:37:48;15.80;99.90
55721;DHT22;41626;53.098;6.168;2023-05-20T08:40:14;16.20;99.90
55721;DHT22;41626;53.098;6.168;2023-05-20T08:42:41;16.20;99.90
55721;DHT22;41626;53.098;6.168;2023-05-20T08:45:10;16.20;99.90
55721;DHT22;41626;53.098;6.168;2023-05-20T08:47:39;16.30;99.90
55721;DHT22;41626;53.098;6.168;2023-05-20T08:50:06;16.50;99.90
55721;DHT22;41626;53.098;6.168;2023-05-20T08:52:33;16.50;99.90
55721;DHT22;41626;53.098;6.168;2023-05-20T08:54:59;16.60;99.90
55721;DHT22;41626;53.098;6.168;2023-05-20T08:57:27;16.50;99.90
55721;DHT22;41626;53.098;6.168;2023-05-20T08:59:54;16.30;99.90
55721;DHT22;41626;53.098;6.168;2023-05-20T09:02:21;16.50;99.90
55721;DHT22;41626;53.098;6.168;2023-05-20T09:04:47;16.70;99.90
55721;DHT22;41626;53.098;6.168;2023-05-20T09:07:13;16.60;99.90
55721;DHT22;41626;53.098;6.168;2023-05-20T09:09:38;16.80;99.90
55721;DHT22;41626;53.098;6.168;2023-05-20T09:12:05;16.90;99.90
55721;DHT22;41626;53.098;6.168;2023-05-20T09:14:31;16.60;99.90
55721;DHT22;41626;53.098;6.168;2023-05-20T09:16:57;16.80;99.90
55721;DHT22;41626;53.098;6.168;2023-05-20T09:19:23;16.90;99.90
55721;DHT22;41626;53.098;6.168;2023-05-20T09:21:53;17.50;99.90
55721;DHT22;41626;53.098;6.168;2023-05-20T09:24:23;17.30;99.90
55721;DHT22;41626;53.098;6.168;2023-05-20T09:26:50;17.10;99.90
55721;DHT22;41626;53.098;6.168;2023-05-20T09:29:16;17.20;99.90
55721;DHT22;41626;53.098;6.168;2023-05-20T09:31:42;17.20;99.90
55721;DHT22;41626;53.098;6.168;2023-05-20T09:34:08;17.20;99.90
55721;DHT22;41626;53.098;6.168;2023-05-20T09:36:34;17.30;99.90
55721;DHT22;41626;53.098;6.168;2023-05-20T09:39:02;17.70;99.90
55721;DHT22;41626;53.098;6.168;2023-05-20T09:41:35;17.70;99.90
55721;DHT22;41626;53.098;6.168;2023-05-20T09:44:02;18.00;99.90
55721;DHT22;41626;53.098;6.168;2023-05-20T09:46:33;17.60;99.90
55721;DHT22;41626;53.098;6.168;2023-05-20T09:48:59;17.70;99.90
55721;DHT22;41626;53.098;6.168;2023-05-20T09:51:26;17.70;99.90
55721;DHT22;41626;53.098;6.168;2023-05-20T09:53:54;17.90;99.90
55721;DHT22;41626;53.098;6.168;2023-05-20T09:56:19;17.90;99.90
55721;DHT22;41626;53.098;6.168;2023-05-20T09:58:48;17.70;99.90
55721;DHT22;41626;53.098;6.168;2023-05-20T10:01:15;17.50;99.90
55721;DHT22;41626;53.098;6.168;2023-05-20T10:03:41;17.50;99.90
55721;DHT22;41626;53.098;6.168;2023-05-20T10:06:49;17.80;99.90
55721;DHT22;41626;53.098;6.168;2023-05-20T10:12:13;17.80;99.90
55721;DHT22;41626;53.098;6.168;2023-05-20T10:17:56;17.80;99.90
55721;DHT22;41626;53.098;6.168;2023-05-20T10:20:23;18.30;99.90
55721;DHT22;41626;53.098;6.168;2023-05-20T10:22:57;17.90;99.90
55721;DHT22;41626;53.098;6.168;2023-05-20T10:25:25;17.90;99.90
55721;DHT22;41626;53.098;6.168;2023-05-20T10:28:02;17.70;99.90
55721;DHT22;41626;53.098;6.168;2023-05-20T10:30:28;17.70;99.90
55721;DHT22;41626;53.098;6.168;2023-05-20T10:32:56;17.70;99.90
55721;DHT22;41626;53.098;6.168;2023-05-20T10:35:23;17.80;99.90
55721;DHT22;41626;53.098;6.168;2023-05-20T10:37:51;18.00;99.90
55721;DHT22;41626;53.098;6.168;2023-05-20T10:40:19;18.30;99.90
55721;DHT22;41626;53.098;6.168;2023-05-20T10:42:45;17.70;99.90
55721;DHT22;41626;53.098;6.168;2023-05-20T10:45:24;18.20;99.90
55721;DHT22;41626;53.098;6.168;2023-05-20T10:47:57;17.60;99.90
55721;DHT22;41626;53.098;6.168;2023-05-20T10:50:33;17.70;99.90
55721;DHT22;41626;53.098;6.168;2023-05-20T10:53:06;18.00;99.90
55721;DHT22;41626;53.098;6.168;2023-05-20T10:55:36;17.80;99.90
55721;DHT22;41626;53.098;6.168;2023-05-20T10:58:03;18.40;99.90
55721;DHT22;41626;53.098;6.168;2023-05-20T11:00:33;18.20;99.90
55721;DHT22;41626;53.098;6.168;2023-05-20T11:02:59;17.90;99.90
55721;DHT22;41626;53.098;6.168;2023-05-20T11:05:26;17.70;99.90
55721;DHT22;41626;53.098;6.168;2023-05-20T11:08:00;18.00;99.90
55721;DHT22;41626;53.098;6.168;2023-05-20T11:10:26;18.00;99.90
55721;DHT22;41626;53.098;6.168;2023-05-20T11:12:52;17.70;99.90
55721;DHT22;41626;53.098;6.168;2023-05-20T11:15:18;17.50;99.90
55721;DHT22;41626;53.098;6.168;2023-05-20T11:17:54;18.00;99.90
55721;DHT22;41626;53.098;6.168;2023-05-20T11:20:24;18.40;99.90
55721;DHT22;41626;53.098;6.168;2023-05-20T11:22:51;18.10;99.90
55721;DHT22;41626;53.098;6.168;2023-05-20T11:25:18;17.70;99.90
55721;DHT22;41626;53.098;6.168;2023-05-20T11:27:44;17.90;99.90
55721;DHT22;41626;53.098;6.168;2023-05-20T11:30:14;17.90;99.90
55721;DHT22;41626;53.098;6.168;2023-05-20T11:32:42;18.80;99.90
55721;DHT22;41626;53.098;6.168;2023-05-20T11:35:22;18.70;99.90
55721;DHT22;41626;53.098;6.168;2023-05-20T11:38:15;18.10;99.90
55721;DHT22;41626;53.098;6.168;2023-05-20T11:40:45;17.50;99.90
55721;DHT22;41626;53.098;6.168;2023-05-20T11:43:12;17.50;99.90
55721;DHT22;41626;53.098;6.168;2023-05-20T11:45:39;18.20;99.90
55721;DHT22;41626;53.098;6.168;2023-05-20T11:48:06;18.50;99.90
55721;DHT22;41626;53.098;6.168;2023-05-20T11:50:37;18.10;99.90
55721;DHT22;41626;53.098;6.168;2023-05-20T11:53:06;17.70;99.90
55721;DHT22;41626;53.098;6.168;2023-05-20T11:55:32;18.20;99.90
55721;DHT22;41626;53.098;6.168;2023-05-20T11:58:00;18.10;99.90
55721;DHT22;41626;53.098;6.168;2023-05-20T12:00:26;18.00;99.90
55721;DHT22;41626;53.098;6.168;2023-05-20T12:02:52;17.60;99.90
55721;DHT22;41626;53.098;6.168;2023-05-20T12:05:17;18.30;99.90
55721;DHT22;41626;53.098;6.168;2023-05-20T12:07:43;18.50;99.90
55721;DHT22;41626;53.098;6.168;2023-05-20T12:10:09;18.20;99.90
55721;DHT22;41626;53.098;6.168;2023-05-20T12:12:36;17.90;99.90
55721;DHT22;41626;53.098;6.168;2023-05-20T12:15:03;17.80;99.90
55721;DHT22;41626;53.098;6.168;2023-05-20T12:17:31;18.00;99.90
55721;DHT22;41626;53.098;6.168;2023-05-20T12:19:57;18.20;99.90
55721;DHT22;41626;53.098;6.168;2023-05-20T12:22:22;17.80;99.90
55721;DHT22;41626;53.098;6.168;2023-05-20T12:24:49;17.70;99.90
55721;DHT22;41626;53.098;6.168;2023-05-20T12:27:14;17.60;99.90
55721;DHT22;41626;53.098;6.168;2023-05-20T12:29:40;18.10;99.90
55721;DHT22;41626;53.098;6.168;2023-05-20T12:32:06;18.10;99.90
55721;DHT22;41626;53.098;6.168;2023-05-20T12:34:31;17.90;99.90
55721;DHT22;41626;53.098;6.168;2023-05-20T12:36:57;18.00;99.90
55721;DHT22;41626;53.098;6.168;2023-05-20T12:39:23;18.30;99.90
55721;DHT22;41626;53.098;6.168;2023-05-20T12:41:49;18.40;99.90
55721;DHT22;41626;53.098;6.168;2023-05-20T12:44:17;18.40;99.90
55721;DHT22;41626;53.098;6.168;2023-05-20T12:46:43;18.60;99.90
55721;DHT22;41626;53.098;6.168;2023-05-20T12:49:08;18.40;99.90
55721;DHT22;41626;53.098;6.168;2023-05-20T12:51:34;18.10;99.90
55721;DHT22;41626;53.098;6.168;2023-05-20T12:54:00;17.90;99.90
55721;DHT22;41626;53.098;6.168;2023-05-20T12:56:25;18.10;99.90
55721;DHT22;41626;53.098;6.168;2023-05-20T12:58:51;18.10;99.90
55721;DHT22;41626;53.098;6.168;2023-05-20T13:01:17;18.40;99.90
55721;DHT22;41626;53.098;6.168;2023-05-20T13:03:43;19.00;99.90
55721;DHT22;41626;53.098;6.168;2023-05-20T13:06:08;18.50;99.90
55721;DHT22;41626;53.098;6.168;2023-05-20T13:08:34;18.10;99.90
55721;DHT22;41626;53.098;6.168;2023-05-20T13:10:59;18.50;99.90
55721;DHT22;41626;53.098;6.168;2023-05-20T13:13:25;18.30;99.90
55721;DHT22;41626;53.098;6.168;2023-05-20T13:15:51;18.10;99.90
55721;DHT22;41626;53.098;6.168;2023-05-20T13:18:17;18.60;99.90
55721;DHT22;41626;53.098;6.168;2023-05-20T13:20:43;18.30;99.90
55721;DHT22;41626;53.098;6.168;2023-05-20T13:23:09;18.10;99.90
55721;DHT22;41626;53.098;6.168;2023-05-20T13:25:35;18.00;99.90
55721;DHT22;41626;53.098;6.168;2023-05-20T13:28:01;18.10;99.90
55721;DHT22;41626;53.098;6.168;2023-05-20T13:30:27;18.90;99.90
55721;DHT22;41626;53.098;6.168;2023-05-20T13:32:53;18.30;99.90
55721;DHT22;41626;53.098;6.168;2023-05-20T13:35:20;18.20;99.90
55721;DHT22;41626;53.098;6.168;2023-05-20T13:37:45;18.30;99.90
55721;DHT22;41626;53.098;6.168;2023-05-20T13:40:11;18.80;99.90
55721;DHT22;41626;53.098;6.168;2023-05-20T13:42:37;18.90;99.90
55721;DHT22;41626;53.098;6.168;2023-05-20T13:45:03;18.90;99.90
55721;DHT22;41626;53.098;6.168;2023-05-20T13:47:29;18.20;99.90
55721;DHT22;41626;53.098;6.168;2023-05-20T13:49:55;18.10;99.90
55721;DHT22;41626;53.098;6.168;2023-05-20T13:52:20;18.20;99.90
55721;DHT22;41626;53.098;6.168;2023-05-20T13:54:46;18.10;99.90
55721;DHT22;41626;53.098;6.168;2023-05-20T13:57:13;18.00;99.90
55721;DHT22;41626;53.098;6.168;2023-05-20T13:59:39;17.90;99.90
55721;DHT22;41626;53.098;6.168;2023-05-20T14:02:06;18.30;99.90
55721;DHT22;41626;53.098;6.168;2023-05-20T14:04:32;18.50;99.90
55721;DHT22;41626;53.098;6.168;2023-05-20T14:07:06;18.50;99.90
55721;DHT22;41626;53.098;6.168;2023-05-20T14:09:32;17.90;99.90
55721;DHT22;41626;53.098;6.168;2023-05-20T14:11:58;17.80;99.90
55721;DHT22;41626;53.098;6.168;2023-05-20T14:14:23;17.60;99.90
55721;DHT22;41626;53.098;6.168;2023-05-20T14:16:49;17.70;99.90
55721;DHT22;41626;53.098;6.168;2023-05-20T14:19:15;17.70;99.90
55721;DHT22;41626;53.098;6.168;2023-05-20T14:21:40;17.90;99.90
55721;DHT22;41626;53.098;6.168;2023-05-20T14:24:06;17.80;99.90
55721;DHT22;41626;53.098;6.168;2023-05-20T14:26:32;17.90;99.90
55721;DHT22;41626;53.098;6.168;2023-05-20T14:28:59;18.20;99.90
55721;DHT22;41626;53.098;6.168;2023-05-20T14:31:25;18.50;99.90
55721;DHT22;41626;53.098;6.168;2023-05-20T14:33:51;18.30;99.90
55721;DHT22;41626;53.098;6.168;2023-05-20T14:36:17;18.10;99.90
55721;DHT22;41626;53.098;6.168;2023-05-20T14:38:43;18.00;99.90
55721;DHT22;41626;53.098;6.168;2023-05-20T14:41:08;17.80;99.90
55721;DHT22;41626;53.098;6.168;2023-05-20T14:43:34;18.30;99.90
55721;DHT22;41626;53.098;6.168;2023-05-20T14:46:01;18.80;99.90
55721;DHT22;41626;53.098;6.168;2023-05-20T14:48:27;19.10;99.90
55721;DHT22;41626;53.098;6.168;2023-05-20T14:50:53;18.70;99.90
55721;DHT22;41626;53.098;6.168;2023-05-20T14:53:18;18.60;99.90
55721;DHT22;41626;53.098;6.168;2023-05-20T14:55:44;18.30;99.90
55721;DHT22;41626;53.098;6.168;2023-05-20T14:58:10;18.10;99.90
55721;DHT22;41626;53.098;6.168;2023-05-20T15:00:36;18.30;99.90
55721;DHT22;41626;53.098;6.168;2023-05-20T15:03:01;18.30;99.90
55721;DHT22;41626;53.098;6.168;2023-05-20T15:05:27;18.30;99.90
55721;DHT22;41626;53.098;6.168;2023-05-20T15:07:53;18.20;99.90
55721;DHT22;41626;53.098;6.168;2023-05-20T15:10:19;18.00;99.90
55721;DHT22;41626;53.098;6.168;2023-05-20T15:12:45;17.90;99.90
55721;DHT22;41626;53.098;6.168;2023-05-20T15:15:11;18.20;99.90
55721;DHT22;41626;53.098;6.168;2023-05-20T15:17:36;18.10;99.90
55721;DHT22;41626;53.098;6.168;2023-05-20T15:20:03;18.30;99.90
55721;DHT22;41626;53.098;6.168;2023-05-20T15:22:28;18.00;99.90
55721;DHT22;41626;53.098;6.168;2023-05-20T15:24:54;18.10;99.90
55721;DHT22;41626;53.098;6.168;2023-05-20T15:27:20;18.20;99.90
55721;DHT22;41626;53.098;6.168;2023-05-20T15:29:46;18.00;99.90
55721;DHT22;41626;53.098;6.168;2023-05-20T15:32:13;17.90;99.90
55721;DHT22;41626;53.098;6.168;2023-05-20T15:34:38;17.70;99.90
55721;DHT22;41626;53.098;6.168;2023-05-20T15:37:04;17.60;99.90